createdAt,value
2022-09-23T00:03:20.634Z,1.25
2022-09-23T00:08:23.566Z,1.15
2022-09-23T00:13:26.807Z,1.20
2022-09-23T00:18:31.204Z,1.95
2022-09-23T00:23:34.235Z,1.50
2022-09-23T00:28:37.487Z,1.30
2022-09-23T00:33:42.228Z,2.60
2022-09-23T00:38:46.245Z,2.22
2022-09-23T00:43:51.469Z,1.52
2022-09-23T00:49:00.975Z,1.27
2022-09-23T00:54:04.853Z,1.67
2022-09-23T00:59:10.382Z,1.50
2022-09-23T01:04:15.476Z,1.27
2022-09-23T01:09:19.063Z,1.52
2022-09-23T01:14:38.362Z,1.27
2022-09-23T01:20:04.416Z,1.83
2022-09-23T01:25:32.879Z,3.33
2022-09-23T01:30:51.413Z,1.35
2022-09-23T01:36:09.983Z,3.58
2022-09-23T01:41:25.091Z,1.98
2022-09-23T01:46:33.703Z,1.27
2022-09-23T01:51:40.434Z,1.98
2022-09-23T01:56:50.127Z,2.80
2022-09-23T02:02:01.009Z,2.15
2022-09-23T02:07:08.760Z,1.52
2022-09-23T02:12:16.694Z,1.42
2022-09-23T02:17:28.511Z,3.85
2022-09-23T02:22:38.605Z,1.42
2022-09-23T02:27:45.531Z,1.88
2022-09-23T02:32:56.650Z,1.30
2022-09-23T02:38:12.554Z,1.48
2022-09-23T02:43:21.204Z,2.72
2022-09-23T02:48:28.878Z,1.98
2022-09-23T02:53:34.506Z,1.20
2022-09-23T02:58:38.331Z,1.42
2022-09-23T03:03:48.238Z,2.60
2022-09-23T03:08:57.614Z,1.42
2022-09-23T03:14:16.886Z,2.78
2022-09-23T03:19:27.810Z,2.53
2022-09-23T03:24:34.068Z,1.63
2022-09-23T03:29:37.323Z,1.70
2022-09-23T03:34:43.982Z,2.00
2022-09-23T03:39:52.630Z,2.28
2022-09-23T03:44:57.418Z,1.73
2022-09-23T03:50:01.737Z,3.08
2022-09-23T03:55:05.048Z,1.40
2022-09-23T04:00:09.283Z,1.33
2022-09-23T04:05:14.318Z,1.30
2022-09-23T04:10:17.350Z,3.42
2022-09-23T04:15:20.318Z,2.17
2022-09-23T04:20:26.971Z,1.42
2022-09-23T04:25:29.902Z,2.17
2022-09-23T04:30:32.845Z,1.30
2022-09-23T04:35:40.338Z,1.55
2022-09-23T04:40:43.536Z,1.60
2022-09-23T04:45:46.658Z,1.73
2022-09-23T04:50:50.951Z,1.77
2022-09-23T04:55:53.951Z,1.77
2022-09-23T05:01:00.587Z,1.83
2022-09-23T05:06:09.923Z,2.28
2022-09-23T05:11:12.906Z,1.60
2022-09-23T05:16:15.983Z,2.05
2022-09-23T05:21:23.151Z,2.00
2022-09-23T05:26:27.787Z,2.40
2022-09-23T05:31:31.741Z,1.63
2022-09-23T05:36:38.969Z,2.20
2022-09-23T05:41:43.522Z,1.52
2022-09-23T05:46:46.501Z,2.58
2022-09-23T05:51:50.885Z,2.50
2022-09-23T05:56:53.867Z,2.20
2022-09-23T06:01:56.921Z,2.00
2022-09-23T06:07:03.522Z,2.45
2022-09-23T06:12:07.393Z,2.55
2022-09-23T06:17:10.319Z,2.72
2022-09-23T06:22:16.900Z,2.28
2022-09-23T06:27:19.941Z,3.97
2022-09-23T06:32:23.131Z,3.15
2022-09-23T06:37:27.919Z,2.10
2022-09-23T06:42:30.870Z,5.78
2022-09-23T06:47:33.899Z,3.08
2022-09-23T06:52:38.211Z,2.30
2022-09-23T06:57:41.528Z,4.32
2022-09-23T07:02:44.625Z,2.55
2022-09-23T07:07:49.388Z,4.43
2022-09-23T07:12:52.319Z,2.47
2022-09-23T07:17:55.623Z,2.65
2022-09-23T07:22:59.992Z,3.42
2022-09-23T07:28:03.372Z,3.78
2022-09-23T07:33:21.889Z,2.13
2022-09-23T07:38:31.432Z,4.55
2022-09-23T07:43:34.596Z,3.20
2022-09-23T07:48:37.816Z,13.45
2022-09-23T07:53:42.179Z,3.10
2022-09-23T07:58:45.154Z,3.08
2022-09-23T08:03:48.076Z,3.90
2022-09-23T08:08:53.444Z,4.40
2022-09-23T08:13:57.221Z,4.72
2022-09-23T08:19:00.253Z,2.80
2022-09-23T08:24:04.915Z,2.53
2022-09-23T08:29:09.790Z,1.95
2022-09-23T08:34:13.263Z,2.17
2022-09-23T08:39:18.975Z,4.32
2022-09-23T08:44:26.758Z,1.88
2022-09-23T08:49:34.252Z,2.58
2022-09-23T08:54:38.626Z,2.83
2022-09-23T08:59:43.874Z,1.92
2022-09-23T09:04:51.910Z,2.10
2022-09-23T09:10:01.624Z,2.65
2022-09-23T09:15:08.035Z,2.80
2022-09-23T09:20:23.191Z,2.80
2022-09-23T09:25:39.320Z,1.80
2022-09-23T09:30:46.390Z,3.80
2022-09-23T09:36:09.075Z,1.48
2022-09-23T09:41:16.986Z,2.20
2022-09-23T09:46:34.181Z,1.52
2022-09-23T09:51:41.603Z,3.17
2022-09-23T09:56:49.104Z,2.05
2022-09-23T10:02:21.470Z,1.67
2022-09-23T10:07:28.115Z,2.67
2022-09-23T10:12:45.735Z,2.90
2022-09-23T10:17:52.338Z,1.75
2022-09-23T10:22:56.694Z,2.35
2022-09-23T10:28:20.105Z,2.78
2022-09-23T10:33:28.143Z,1.88
2022-09-23T10:38:31.110Z,1.63
2022-09-23T10:43:58.371Z,2.97
2022-09-23T10:49:17.519Z,2.63
2022-09-23T10:54:28.365Z,1.92
2022-09-23T10:59:58.723Z,2.15
2022-09-23T11:05:22.927Z,2.72
2022-09-23T11:10:50.276Z,2.35
2022-09-23T11:16:03.370Z,1.65
2022-09-23T11:21:22.102Z,4.22
2022-09-23T11:26:33.499Z,1.85
2022-09-23T11:31:47.248Z,1.88
2022-09-23T11:36:55.236Z,1.85
2022-09-23T11:42:00.970Z,2.97
2022-09-23T11:47:10.390Z,3.22
2022-09-23T11:52:20.534Z,2.15
2022-09-23T11:57:40.885Z,2.42
2022-09-23T12:03:05.645Z,2.90
2022-09-23T12:08:17.952Z,1.60
2022-09-23T12:13:25.130Z,2.90
2022-09-23T12:18:42.176Z,4.28
2022-09-23T12:23:59.244Z,2.17
2022-09-23T12:29:04.006Z,1.92
2022-09-23T12:34:28.662Z,1.50
2022-09-23T12:39:34.505Z,1.92
2022-09-23T12:44:41.787Z,3.38
2022-09-23T12:49:46.205Z,2.25
2022-09-23T12:54:50.596Z,2.00
2022-09-23T13:00:14.432Z,2.90
2022-09-23T13:05:41.455Z,2.33
2022-09-23T13:10:49.738Z,1.65
2022-09-23T13:15:54.111Z,2.22
2022-09-23T13:20:58.443Z,2.05
2022-09-23T13:26:10.067Z,2.08
2022-09-23T13:31:17.163Z,3.17
2022-09-23T13:36:22.203Z,1.77
2022-09-23T13:41:28.675Z,2.55
2022-09-23T13:46:39.423Z,2.08
2022-09-23T13:51:46.223Z,2.63
2022-09-23T13:56:50.068Z,2.05
2022-09-23T14:02:03.995Z,2.10
2022-09-23T14:07:11.547Z,1.90
2022-09-23T14:12:15.059Z,2.67
2022-09-23T14:17:21.531Z,1.92
2022-09-23T14:22:27.708Z,2.72
2022-09-23T14:27:32.751Z,2.25
2022-09-23T14:32:35.927Z,1.73
2022-09-23T14:38:03.294Z,1.70
2022-09-23T14:43:15.977Z,2.63
2022-09-23T14:48:23.437Z,3.20
2022-09-23T14:53:40.277Z,1.92
2022-09-23T14:58:51.670Z,2.30
2022-09-23T15:03:57.596Z,2.42
2022-09-23T15:09:01.985Z,1.80
2022-09-23T15:14:26.314Z,2.25
2022-09-23T15:19:30.165Z,2.35
2022-09-23T15:24:41.087Z,1.70
2022-09-23T15:29:44.047Z,2.53
2022-09-23T15:34:49.190Z,2.25
2022-09-23T15:39:53.500Z,2.53
2022-09-23T15:44:57.532Z,2.20
2022-09-23T15:50:00.510Z,2.33
2022-09-23T15:55:13.825Z,4.38
2022-09-23T16:00:17.783Z,6.68
2022-09-23T16:05:27.440Z,7.43
2022-09-23T16:10:32.489Z,11.55
2022-09-23T16:15:35.744Z,6.65
2022-09-23T16:20:41.887Z,23.10
2022-09-23T16:25:46.219Z,21.35
2022-09-23T16:30:49.147Z,17.20
2022-09-23T16:35:52.718Z,16.42
2022-09-23T16:41:00.554Z,15.15
2022-09-23T16:46:03.943Z,14.15
2022-09-23T16:51:07.027Z,12.82
2022-09-23T16:56:13.081Z,11.40
2022-09-23T17:01:37.111Z,11.93
2022-09-23T17:06:44.240Z,12.63
2022-09-23T17:11:55.267Z,14.98
2022-09-23T17:16:59.609Z,13.60
2022-09-23T17:22:02.569Z,17.77
2022-09-23T17:27:06.963Z,10.43
2022-09-23T17:32:09.932Z,13.48
2022-09-23T17:37:12.903Z,11.02
2022-09-23T17:42:18.226Z,11.43
2022-09-23T17:47:21.190Z,12.02
2022-09-23T17:52:24.202Z,9.00
2022-09-23T17:57:28.540Z,9.15
2022-09-23T18:02:31.626Z,9.70
2022-09-23T18:07:34.630Z,7.80
2022-09-23T18:12:38.975Z,9.40
2022-09-23T18:17:41.996Z,8.82
2022-09-23T18:22:45.061Z,9.38
2022-09-23T18:27:49.553Z,7.43
2022-09-23T18:32:52.566Z,6.65
2022-09-23T18:37:56.237Z,5.85
2022-09-23T18:43:00.602Z,7.95
2022-09-23T18:48:21.210Z,7.57
2022-09-23T18:53:24.323Z,5.40
2022-09-23T18:58:28.696Z,6.22
2022-09-23T19:03:31.790Z,6.40
2022-09-23T19:08:35.789Z,5.47
2022-09-23T19:13:40.470Z,5.43
2022-09-23T19:18:46.411Z,4.90
2022-09-23T19:23:50.950Z,4.68
2022-09-23T19:28:56.855Z,4.72
2022-09-23T19:34:01.952Z,3.92
2022-09-23T19:39:07.218Z,4.80
2022-09-23T19:44:11.839Z,3.75
2022-09-23T19:49:17.131Z,4.00
2022-09-23T19:54:20.690Z,5.85
2022-09-23T19:59:26.416Z,3.92
2022-09-23T20:04:29.878Z,5.00
2022-09-23T20:09:34.338Z,4.18
2022-09-23T20:14:38.859Z,4.65
2022-09-23T20:19:42.088Z,3.83
2022-09-23T20:24:45.080Z,4.20
2022-09-23T20:29:50.085Z,3.92
2022-09-23T20:34:53.498Z,4.07
2022-09-23T20:39:56.456Z,3.67
2022-09-23T20:45:00.780Z,3.72
2022-09-23T20:50:03.850Z,4.40
2022-09-23T20:55:08.101Z,7.13
2022-09-23T21:00:13.948Z,4.57
2022-09-23T21:05:17.963Z,7.13
2022-09-23T21:10:22.727Z,4.93
2022-09-23T21:15:27.846Z,4.65
2022-09-23T21:20:31.295Z,5.18
2022-09-23T21:25:36.542Z,4.57
2022-09-23T21:30:41.417Z,4.07
2022-09-23T21:35:44.359Z,5.70
2022-09-23T21:40:59.474Z,5.28
2022-09-23T21:46:05.906Z,4.47
2022-09-23T21:51:11.832Z,6.07
2022-09-23T21:56:20.438Z,4.05
2022-09-23T22:01:27.330Z,3.63
2022-09-23T22:06:30.537Z,5.32
2022-09-23T22:11:51.971Z,3.97
2022-09-23T22:16:57.866Z,3.33
2022-09-23T22:22:00.869Z,4.20
2022-09-23T22:27:03.837Z,4.00
2022-09-23T22:32:29.973Z,4.53
2022-09-23T22:37:34.814Z,5.03
2022-09-23T22:42:37.866Z,3.70
2022-09-23T22:47:45.354Z,5.05
2022-09-23T22:52:49.169Z,3.90
2022-09-23T22:57:52.426Z,4.05
2022-09-23T23:02:58.272Z,4.63
2022-09-23T23:08:02.127Z,5.97
2022-09-23T23:13:05.864Z,3.70
2022-09-23T23:18:10.191Z,4.53
2022-09-23T23:23:13.147Z,4.28
2022-09-23T23:28:16.080Z,3.40
2022-09-23T23:33:20.615Z,4.28
2022-09-23T23:38:23.556Z,4.88
2022-09-23T23:43:26.520Z,3.75
2022-09-23T23:48:30.862Z,3.33
2022-09-23T23:53:35.580Z,4.63
2022-09-23T23:58:38.900Z,3.78
